createdAt,value
2022-12-22T00:05:09.301Z,100084.56
2022-12-22T00:15:34.937Z,100066.56
2022-12-22T00:25:54.900Z,100045.09
2022-12-22T00:36:14.722Z,100036.50
2022-12-22T00:46:36.984Z,100022.72
2022-12-22T00:56:56.801Z,100016.66
2022-12-22T01:07:16.680Z,99995.97
2022-12-22T01:17:36.482Z,99978.78
2022-12-22T01:27:56.276Z,99959.88
2022-12-22T01:38:16.018Z,99949.50
2022-12-22T01:48:37.648Z,99931.44
2022-12-22T01:59:02.379Z,99921.88
2022-12-22T02:09:50.167Z,99906.31
2022-12-22T02:20:24.664Z,99886.59
2022-12-22T02:30:45.817Z,99866.72
2022-12-22T02:41:27.970Z,99843.38
2022-12-22T02:51:52.261Z,99825.31
2022-12-22T03:02:12.792Z,99826.19
2022-12-22T03:12:32.935Z,99796.94
2022-12-22T03:22:52.735Z,99797.75
2022-12-22T03:32:54.080Z,99783.91
2022-12-22T03:43:14.293Z,99763.47
2022-12-22T03:53:15.698Z,99759.16
2022-12-22T04:03:17.655Z,99745.22
2022-12-22T04:13:19.088Z,99740.22
2022-12-22T04:23:20.515Z,99729.88
2022-12-22T04:33:21.858Z,99728.09
2022-12-22T04:43:23.218Z,99716.09
2022-12-22T04:53:26.422Z,99712.53
2022-12-22T05:03:27.847Z,99698.72
2022-12-22T05:13:30.718Z,99696.81
2022-12-22T05:23:32.181Z,99696.16
2022-12-22T05:33:34.426Z,99692.63
2022-12-22T05:43:36.691Z,99696.81
2022-12-22T05:53:39.060Z,99697.84
2022-12-22T06:03:40.530Z,99689.22
2022-12-22T06:13:43.062Z,99697.72
2022-12-22T06:23:44.437Z,99703.81
2022-12-22T06:33:46.292Z,99709.81
2022-12-22T06:43:47.615Z,99716.63
2022-12-22T06:53:48.998Z,99733.84
2022-12-22T07:03:50.621Z,99740.75
2022-12-22T07:13:52.147Z,99782.06
2022-12-22T07:23:53.524Z,99815.56
2022-12-22T07:33:54.915Z,99825.03
2022-12-22T07:43:58.589Z,99842.28
2022-12-22T07:54:00.096Z,99852.63
2022-12-22T08:04:01.488Z,99875.00
2022-12-22T08:14:02.917Z,99885.31
2022-12-22T08:24:04.682Z,99911.16
2022-12-22T08:34:09.143Z,99923.22
2022-12-22T08:44:10.764Z,99952.50
2022-12-22T08:54:12.675Z,99958.53
2022-12-22T09:04:15.526Z,99951.59
2022-12-22T09:14:17.786Z,99995.44
2022-12-22T09:24:19.252Z,100010.84
2022-12-22T09:34:20.737Z,100041.78
2022-12-22T09:44:33.211Z,100060.72
2022-12-22T09:54:34.584Z,100072.75
2022-12-22T10:04:41.216Z,100093.41
2022-12-22T10:14:45.660Z,100105.47
2022-12-22T10:24:47.052Z,100130.50
2022-12-22T10:35:03.852Z,100123.63
2022-12-22T10:45:05.870Z,100108.13
2022-12-22T10:55:22.064Z,100126.22
2022-12-22T11:05:23.886Z,100162.41
2022-12-22T11:15:38.914Z,100160.72
2022-12-22T11:26:02.060Z,100177.88
2022-12-22T11:36:09.753Z,100194.25
2022-12-22T11:46:20.030Z,100202.03
2022-12-22T11:56:32.606Z,100209.88
2022-12-22T12:06:45.677Z,100215.03
2022-12-22T12:17:00.401Z,100227.13
2022-12-22T12:27:20.157Z,100235.75
2022-12-22T12:37:27.656Z,100232.34
2022-12-22T12:47:32.181Z,100227.16
2022-12-22T12:57:53.961Z,100217.69
2022-12-22T13:08:10.408Z,100225.41
2022-12-22T13:18:24.206Z,100219.38
2022-12-22T13:28:27.282Z,100217.63
2022-12-22T13:38:35.831Z,100225.34
2022-12-22T13:48:44.706Z,100227.09
2022-12-22T13:58:53.345Z,100239.94
2022-12-22T14:09:23.103Z,100237.34
2022-12-22T14:19:25.402Z,100246.84
2022-12-22T14:29:30.262Z,100242.56
2022-12-22T14:39:32.533Z,100231.38
2022-12-22T14:49:35.207Z,100235.69
2022-12-22T14:59:37.008Z,100217.66
2022-12-22T15:10:13.753Z,100205.63
2022-12-22T15:19:59.984Z,100182.41
2022-12-22T15:30:01.552Z,100179.00
2022-12-22T15:40:03.098Z,100176.44
2022-12-22T15:50:05.365Z,100167.81
2022-12-22T16:00:07.537Z,100165.28
2022-12-22T16:10:21.890Z,100141.19
2022-12-22T16:20:24.511Z,100145.50
2022-12-22T16:30:29.221Z,100113.72
2022-12-22T16:40:33.327Z,100098.22
2022-12-22T16:50:35.600Z,100081.91
2022-12-22T17:00:38.461Z,100068.19
2022-12-22T17:10:39.823Z,100068.19
2022-12-22T17:20:41.245Z,100051.84
2022-12-22T17:30:42.970Z,100039.78
2022-12-22T17:40:45.278Z,100024.25
2022-12-22T17:50:50.270Z,99995.81
2022-12-22T18:00:51.757Z,99981.16
2022-12-22T18:10:53.291Z,99976.84
2022-12-22T18:21:06.476Z,99951.88
2022-12-22T18:31:09.414Z,99947.56
2022-12-22T18:41:16.868Z,99945.88
2022-12-22T18:51:22.640Z,99925.19
2022-12-22T19:01:26.685Z,99921.72
2022-12-22T19:11:30.968Z,99912.22
2022-12-22T19:21:32.359Z,99905.34
2022-12-22T19:31:35.925Z,99897.63
2022-12-22T19:41:46.510Z,99881.28
2022-12-22T19:51:48.961Z,99889.03
2022-12-22T20:01:50.580Z,99874.25
2022-12-22T20:11:52.190Z,99878.56
2022-12-22T20:21:53.623Z,99877.72
2022-12-22T20:31:55.071Z,99877.66
2022-12-22T20:41:56.482Z,99863.88
2022-12-22T20:51:57.923Z,99859.50
2022-12-22T21:01:59.597Z,99880.03
2022-12-22T21:12:01.132Z,99882.56
2022-12-22T21:22:02.488Z,99880.75
2022-12-22T21:32:04.152Z,99879.88
2022-12-22T21:42:05.734Z,99878.97
2022-12-22T21:52:07.252Z,99887.56
2022-12-22T22:02:16.878Z,99881.53
2022-12-22T22:12:33.450Z,99874.56
2022-12-22T22:22:34.850Z,99874.56
2022-12-22T22:32:36.191Z,99866.84
2022-12-22T22:42:38.361Z,99871.09
2022-12-22T22:52:39.738Z,99877.16
2022-12-22T23:02:41.799Z,99878.06
2022-12-22T23:12:43.291Z,99887.50
2022-12-22T23:22:44.769Z,99885.81
2022-12-22T23:32:46.142Z,99877.09
2022-12-22T23:42:51.656Z,99878.00
2022-12-22T23:52:56.201Z,99884.03
